sensor_id;sensor_type;location;lat;lon;timestamp;P1;durP1;ratioP1;P2;durP2;ratioP2
33413;SDS011;60055;41.884;12.534;2023-04-03T00:00:21;11.98;;;3.85;;
33413;SDS011;60055;41.884;12.534;2023-04-03T00:02:47;15.18;;;3.83;;
33413;SDS011;60055;41.884;12.534;2023-04-03T00:05:12;13.38;;;3.95;;
33413;SDS011;60055;41.884;12.534;2023-04-03T00:07:38;11.82;;;4.25;;
33413;SDS011;60055;41.884;12.534;2023-04-03T00:10:03;13.50;;;4.03;;
33413;SDS011;60055;41.884;12.534;2023-04-03T00:12:29;13.00;;;3.78;;
33413;SDS011;60055;41.884;12.534;2023-04-03T00:14:54;13.40;;;3.42;;
33413;SDS011;60055;41.884;12.534;2023-04-03T00:17:20;13.98;;;3.95;;
33413;SDS011;60055;41.884;12.534;2023-04-03T00:19:45;14.00;;;3.50;;
33413;SDS011;60055;41.884;12.534;2023-04-03T00:22:11;15.25;;;3.60;;
33413;SDS011;60055;41.884;12.534;2023-04-03T00:24:37;15.60;;;3.30;;
33413;SDS011;60055;41.884;12.534;2023-04-03T00:27:02;20.98;;;4.20;;
33413;SDS011;60055;41.884;12.534;2023-04-03T00:29:28;12.10;;;3.30;;
33413;SDS011;60055;41.884;12.534;2023-04-03T00:31:53;14.40;;;3.30;;
33413;SDS011;60055;41.884;12.534;2023-04-03T00:34:18;11.93;;;3.05;;
33413;SDS011;60055;41.884;12.534;2023-04-03T00:36:44;10.85;;;3.10;;
33413;SDS011;60055;41.884;12.534;2023-04-03T00:39:10;10.40;;;2.88;;
33413;SDS011;60055;41.884;12.534;2023-04-03T00:41:35;10.85;;;3.00;;
33413;SDS011;60055;41.884;12.534;2023-04-03T00:44:01;10.85;;;3.13;;
33413;SDS011;60055;41.884;12.534;2023-04-03T00:46:42;13.25;;;3.13;;
33413;SDS011;60055;41.884;12.534;2023-04-03T00:49:08;12.40;;;3.17;;
33413;SDS011;60055;41.884;12.534;2023-04-03T00:51:33;9.20;;;2.22;;
33413;SDS011;60055;41.884;12.534;2023-04-03T00:54:00;10.07;;;2.60;;
33413;SDS011;60055;41.884;12.534;2023-04-03T00:56:27;10.30;;;2.40;;
33413;SDS011;60055;41.884;12.534;2023-04-03T00:58:57;9.38;;;2.63;;
33413;SDS011;60055;41.884;12.534;2023-04-03T01:01:27;9.20;;;2.55;;
33413;SDS011;60055;41.884;12.534;2023-04-03T01:03:54;9.75;;;2.72;;
33413;SDS011;60055;41.884;12.534;2023-04-03T01:06:29;8.68;;;2.47;;
33413;SDS011;60055;41.884;12.534;2023-04-03T01:08:59;9.02;;;2.50;;
33413;SDS011;60055;41.884;12.534;2023-04-03T01:11:25;7.90;;;2.20;;
33413;SDS011;60055;41.884;12.534;2023-04-03T01:13:51;6.35;;;1.98;;
33413;SDS011;60055;41.884;12.534;2023-04-03T01:16:18;7.68;;;2.00;;
33413;SDS011;60055;41.884;12.534;2023-04-03T01:18:44;9.23;;;2.20;;
33413;SDS011;60055;41.884;12.534;2023-04-03T01:24:00;6.93;;;3.10;;
33413;SDS011;60055;41.884;12.534;2023-04-03T01:26:35;5.03;;;1.85;;
33413;SDS011;60055;41.884;12.534;2023-04-03T01:29:00;8.82;;;2.10;;
33413;SDS011;60055;41.884;12.534;2023-04-03T01:33:52;7.38;;;1.95;;
33413;SDS011;60055;41.884;12.534;2023-04-03T01:36:20;4.97;;;1.77;;
33413;SDS011;60055;41.884;12.534;2023-04-03T01:38:51;6.57;;;1.63;;
33413;SDS011;60055;41.884;12.534;2023-04-03T01:41:18;5.90;;;1.48;;
33413;SDS011;60055;41.884;12.534;2023-04-03T01:43:46;4.80;;;1.95;;
33413;SDS011;60055;41.884;12.534;2023-04-03T01:46:15;6.30;;;2.00;;
33413;SDS011;60055;41.884;12.534;2023-04-03T01:48:41;5.85;;;1.73;;
33413;SDS011;60055;41.884;12.534;2023-04-03T01:51:07;5.38;;;1.63;;
33413;SDS011;60055;41.884;12.534;2023-04-03T01:53:32;4.68;;;1.80;;
33413;SDS011;60055;41.884;12.534;2023-04-03T01:55:58;4.00;;;1.45;;
33413;SDS011;60055;41.884;12.534;2023-04-03T01:58:23;5.18;;;1.75;;
33413;SDS011;60055;41.884;12.534;2023-04-03T02:00:48;3.22;;;1.70;;
33413;SDS011;60055;41.884;12.534;2023-04-03T02:03:14;3.80;;;1.67;;
33413;SDS011;60055;41.884;12.534;2023-04-03T02:05:40;6.22;;;1.70;;
33413;SDS011;60055;41.884;12.534;2023-04-03T02:08:05;4.05;;;1.70;;
33413;SDS011;60055;41.884;12.534;2023-04-03T02:10:30;3.08;;;1.38;;
33413;SDS011;60055;41.884;12.534;2023-04-03T02:12:56;3.65;;;1.50;;
33413;SDS011;60055;41.884;12.534;2023-04-03T02:15:21;4.15;;;1.50;;
33413;SDS011;60055;41.884;12.534;2023-04-03T02:17:47;5.95;;;1.50;;
33413;SDS011;60055;41.884;12.534;2023-04-03T02:20:12;7.50;;;1.58;;
33413;SDS011;60055;41.884;12.534;2023-04-03T02:22:38;4.60;;;1.40;;
33413;SDS011;60055;41.884;12.534;2023-04-03T02:25:03;4.03;;;1.50;;
33413;SDS011;60055;41.884;12.534;2023-04-03T02:27:29;6.15;;;1.75;;
33413;SDS011;60055;41.884;12.534;2023-04-03T02:29:54;4.28;;;1.50;;
33413;SDS011;60055;41.884;12.534;2023-04-03T02:32:19;4.82;;;1.40;;
33413;SDS011;60055;41.884;12.534;2023-04-03T02:34:45;4.50;;;1.55;;
33413;SDS011;60055;41.884;12.534;2023-04-03T02:37:10;4.70;;;1.40;;
33413;SDS011;60055;41.884;12.534;2023-04-03T02:39:35;3.63;;;1.40;;
33413;SDS011;60055;41.884;12.534;2023-04-03T02:42:01;4.40;;;1.45;;
33413;SDS011;60055;41.884;12.534;2023-04-03T02:44:26;5.40;;;1.50;;
33413;SDS011;60055;41.884;12.534;2023-04-03T02:46:51;2.85;;;1.25;;
33413;SDS011;60055;41.884;12.534;2023-04-03T02:49:17;5.20;;;1.60;;
33413;SDS011;60055;41.884;12.534;2023-04-03T02:51:43;4.28;;;1.55;;
33413;SDS011;60055;41.884;12.534;2023-04-03T02:54:08;3.95;;;1.70;;
33413;SDS011;60055;41.884;12.534;2023-04-03T02:56:34;3.38;;;1.27;;
33413;SDS011;60055;41.884;12.534;2023-04-03T02:58:59;6.47;;;1.27;;
33413;SDS011;60055;41.884;12.534;2023-04-03T03:01:25;4.43;;;1.40;;
33413;SDS011;60055;41.884;12.534;2023-04-03T03:03:53;5.30;;;1.25;;
33413;SDS011;60055;41.884;12.534;2023-04-03T03:06:18;3.55;;;1.27;;
33413;SDS011;60055;41.884;12.534;2023-04-03T03:08:46;2.25;;;1.13;;
33413;SDS011;60055;41.884;12.534;2023-04-03T03:11:11;5.13;;;1.27;;
33413;SDS011;60055;41.884;12.534;2023-04-03T03:13:37;4.53;;;1.35;;
33413;SDS011;60055;41.884;12.534;2023-04-03T03:16:02;6.25;;;1.40;;
33413;SDS011;60055;41.884;12.534;2023-04-03T03:18:28;5.60;;;1.30;;
33413;SDS011;60055;41.884;12.534;2023-04-03T03:20:55;6.55;;;1.60;;
33413;SDS011;60055;41.884;12.534;2023-04-03T03:23:22;3.60;;;1.30;;
33413;SDS011;60055;41.884;12.534;2023-04-03T03:25:49;4.35;;;1.65;;
33413;SDS011;60055;41.884;12.534;2023-04-03T03:28:19;3.92;;;1.50;;
33413;SDS011;60055;41.884;12.534;2023-04-03T03:30:44;4.78;;;1.40;;
33413;SDS011;60055;41.884;12.534;2023-04-03T03:33:10;2.90;;;1.20;;
33413;SDS011;60055;41.884;12.534;2023-04-03T03:35:35;5.28;;;1.50;;
33413;SDS011;60055;41.884;12.534;2023-04-03T03:38:01;2.70;;;1.20;;
33413;SDS011;60055;41.884;12.534;2023-04-03T03:40:26;3.92;;;1.25;;
33413;SDS011;60055;41.884;12.534;2023-04-03T03:42:51;3.45;;;1.33;;
33413;SDS011;60055;41.884;12.534;2023-04-03T03:45:16;3.13;;;1.35;;
33413;SDS011;60055;41.884;12.534;2023-04-03T03:47:43;4.22;;;1.38;;
33413;SDS011;60055;41.884;12.534;2023-04-03T03:50:10;2.33;;;1.27;;
33413;SDS011;60055;41.884;12.534;2023-04-03T03:52:35;3.85;;;1.25;;
33413;SDS011;60055;41.884;12.534;2023-04-03T03:55:01;2.67;;;1.10;;
33413;SDS011;60055;41.884;12.534;2023-04-03T03:57:26;2.15;;;1.20;;
33413;SDS011;60055;41.884;12.534;2023-04-03T03:59:53;5.57;;;1.42;;
33413;SDS011;60055;41.884;12.534;2023-04-03T04:02:19;2.92;;;1.17;;
33413;SDS011;60055;41.884;12.534;2023-04-03T04:04:44;3.10;;;1.27;;
33413;SDS011;60055;41.884;12.534;2023-04-03T04:07:10;2.17;;;1.17;;
33413;SDS011;60055;41.884;12.534;2023-04-03T04:09:37;4.85;;;1.30;;
33413;SDS011;60055;41.884;12.534;2023-04-03T04:12:02;3.20;;;1.45;;
33413;SDS011;60055;41.884;12.534;2023-04-03T04:14:28;2.60;;;1.23;;
33413;SDS011;60055;41.884;12.534;2023-04-03T04:16:53;5.93;;;1.30;;
33413;SDS011;60055;41.884;12.534;2023-04-03T04:19:18;4.10;;;1.20;;
33413;SDS011;60055;41.884;12.534;2023-04-03T04:21:44;3.70;;;1.20;;
33413;SDS011;60055;41.884;12.534;2023-04-03T04:24:10;3.55;;;1.20;;
33413;SDS011;60055;41.884;12.534;2023-04-03T04:26:35;4.13;;;1.25;;
33413;SDS011;60055;41.884;12.534;2023-04-03T04:29:01;2.10;;;1.05;;
33413;SDS011;60055;41.884;12.534;2023-04-03T04:31:26;2.60;;;1.30;;
33413;SDS011;60055;41.884;12.534;2023-04-03T04:33:52;1.67;;;1.00;;
33413;SDS011;60055;41.884;12.534;2023-04-03T04:36:20;3.60;;;1.08;;
33413;SDS011;60055;41.884;12.534;2023-04-03T04:38:46;1.77;;;1.30;;
33413;SDS011;60055;41.884;12.534;2023-04-03T04:41:11;3.78;;;1.25;;
33413;SDS011;60055;41.884;12.534;2023-04-03T04:43:37;2.05;;;1.23;;
33413;SDS011;60055;41.884;12.534;2023-04-03T04:46:05;5.75;;;1.50;;
33413;SDS011;60055;41.884;12.534;2023-04-03T04:48:32;4.47;;;1.30;;
33413;SDS011;60055;41.884;12.534;2023-04-03T04:50:59;2.00;;;1.23;;
33413;SDS011;60055;41.884;12.534;2023-04-03T04:53:24;3.85;;;1.48;;
33413;SDS011;60055;41.884;12.534;2023-04-03T04:55:49;3.90;;;1.63;;
33413;SDS011;60055;41.884;12.534;2023-04-03T04:58:15;6.53;;;1.15;;
33413;SDS011;60055;41.884;12.534;2023-04-03T05:00:40;2.83;;;1.33;;
33413;SDS011;60055;41.884;12.534;2023-04-03T05:03:06;4.93;;;1.40;;
33413;SDS011;60055;41.884;12.534;2023-04-03T05:05:31;2.35;;;1.33;;
33413;SDS011;60055;41.884;12.534;2023-04-03T05:07:56;4.90;;;1.27;;
33413;SDS011;60055;41.884;12.534;2023-04-03T05:10:22;4.57;;;1.30;;
33413;SDS011;60055;41.884;12.534;2023-04-03T05:12:47;3.20;;;1.05;;
33413;SDS011;60055;41.884;12.534;2023-04-03T05:15:13;4.38;;;1.30;;
33413;SDS011;60055;41.884;12.534;2023-04-03T05:17:38;4.38;;;1.30;;
33413;SDS011;60055;41.884;12.534;2023-04-03T05:20:04;3.25;;;1.50;;
33413;SDS011;60055;41.884;12.534;2023-04-03T05:22:30;3.70;;;1.13;;
33413;SDS011;60055;41.884;12.534;2023-04-03T05:24:55;3.97;;;1.17;;
33413;SDS011;60055;41.884;12.534;2023-04-03T05:27:21;1.65;;;1.20;;
33413;SDS011;60055;41.884;12.534;2023-04-03T05:29:49;3.65;;;1.17;;
33413;SDS011;60055;41.884;12.534;2023-04-03T05:32:14;4.20;;;1.20;;
33413;SDS011;60055;41.884;12.534;2023-04-03T05:34:40;3.58;;;1.30;;
33413;SDS011;60055;41.884;12.534;2023-04-03T05:37:05;4.68;;;1.33;;
33413;SDS011;60055;41.884;12.534;2023-04-03T05:39:31;5.47;;;1.40;;
33413;SDS011;60055;41.884;12.534;2023-04-03T05:41:56;3.00;;;1.20;;
33413;SDS011;60055;41.884;12.534;2023-04-03T05:44:22;5.03;;;1.30;;
33413;SDS011;60055;41.884;12.534;2023-04-03T05:46:47;3.72;;;1.27;;
33413;SDS011;60055;41.884;12.534;2023-04-03T05:49:13;3.70;;;1.20;;
33413;SDS011;60055;41.884;12.534;2023-04-03T05:51:39;6.13;;;1.30;;
33413;SDS011;60055;41.884;12.534;2023-04-03T05:54:12;4.43;;;1.25;;
33413;SDS011;60055;41.884;12.534;2023-04-03T05:56:47;4.70;;;1.17;;
33413;SDS011;60055;41.884;12.534;2023-04-03T05:59:13;5.60;;;1.10;;
33413;SDS011;60055;41.884;12.534;2023-04-03T06:01:39;2.40;;;1.20;;
33413;SDS011;60055;41.884;12.534;2023-04-03T06:04:04;4.88;;;1.33;;
33413;SDS011;60055;41.884;12.534;2023-04-03T06:09:16;2.70;;;1.40;;
33413;SDS011;60055;41.884;12.534;2023-04-03T06:11:43;3.85;;;1.33;;
33413;SDS011;60055;41.884;12.534;2023-04-03T06:14:13;3.25;;;1.15;;
33413;SDS011;60055;41.884;12.534;2023-04-03T06:16:38;2.33;;;1.10;;
33413;SDS011;60055;41.884;12.534;2023-04-03T06:19:04;4.68;;;1.30;;
33413;SDS011;60055;41.884;12.534;2023-04-03T06:21:31;3.70;;;1.15;;
33413;SDS011;60055;41.884;12.534;2023-04-03T06:23:56;4.97;;;1.23;;
33413;SDS011;60055;41.884;12.534;2023-04-03T06:26:21;3.25;;;1.30;;
33413;SDS011;60055;41.884;12.534;2023-04-03T06:28:47;5.10;;;1.38;;
33413;SDS011;60055;41.884;12.534;2023-04-03T06:31:13;4.20;;;1.42;;
33413;SDS011;60055;41.884;12.534;2023-04-03T06:33:40;4.25;;;1.38;;
33413;SDS011;60055;41.884;12.534;2023-04-03T06:36:05;5.20;;;1.55;;
33413;SDS011;60055;41.884;12.534;2023-04-03T06:38:32;2.45;;;1.25;;
33413;SDS011;60055;41.884;12.534;2023-04-03T06:40:58;4.00;;;1.35;;
33413;SDS011;60055;41.884;12.534;2023-04-03T06:43:24;3.20;;;1.23;;
33413;SDS011;60055;41.884;12.534;2023-04-03T06:45:49;2.15;;;1.10;;
33413;SDS011;60055;41.884;12.534;2023-04-03T06:48:15;4.05;;;1.60;;
33413;SDS011;60055;41.884;12.534;2023-04-03T06:50:41;6.90;;;1.92;;
33413;SDS011;60055;41.884;12.534;2023-04-03T06:53:07;12.20;;;2.38;;
33413;SDS011;60055;41.884;12.534;2023-04-03T06:55:33;5.47;;;1.90;;
33413;SDS011;60055;41.884;12.534;2023-04-03T06:57:59;6.28;;;1.90;;
33413;SDS011;60055;41.884;12.534;2023-04-03T07:00:24;7.38;;;1.88;;
33413;SDS011;60055;41.884;12.534;2023-04-03T07:02:50;5.47;;;1.65;;
33413;SDS011;60055;41.884;12.534;2023-04-03T07:05:16;4.75;;;1.58;;
33413;SDS011;60055;41.884;12.534;2023-04-03T07:07:42;3.97;;;1.80;;
33413;SDS011;60055;41.884;12.534;2023-04-03T07:10:07;5.05;;;1.63;;
33413;SDS011;60055;41.884;12.534;2023-04-03T07:12:33;6.20;;;1.70;;
33413;SDS011;60055;41.884;12.534;2023-04-03T07:14:59;3.72;;;1.50;;
33413;SDS011;60055;41.884;12.534;2023-04-03T07:17:24;6.10;;;1.50;;
33413;SDS011;60055;41.884;12.534;2023-04-03T07:19:51;6.22;;;1.10;;
33413;SDS011;60055;41.884;12.534;2023-04-03T07:22:17;1.80;;;1.17;;
33413;SDS011;60055;41.884;12.534;2023-04-03T07:24:43;2.08;;;1.10;;
33413;SDS011;60055;41.884;12.534;2023-04-03T07:27:09;3.10;;;1.00;;
33413;SDS011;60055;41.884;12.534;2023-04-03T07:29:34;4.68;;;1.17;;
33413;SDS011;60055;41.884;12.534;2023-04-03T07:32:00;2.38;;;0.95;;
33413;SDS011;60055;41.884;12.534;2023-04-03T07:34:26;2.83;;;1.10;;
33413;SDS011;60055;41.884;12.534;2023-04-03T07:36:52;10.30;;;1.42;;
33413;SDS011;60055;41.884;12.534;2023-04-03T07:39:17;6.82;;;1.20;;
33413;SDS011;60055;41.884;12.534;2023-04-03T07:41:44;3.67;;;1.38;;
33413;SDS011;60055;41.884;12.534;2023-04-03T07:44:12;4.07;;;1.25;;
33413;SDS011;60055;41.884;12.534;2023-04-03T07:46:38;2.40;;;1.40;;
33413;SDS011;60055;41.884;12.534;2023-04-03T07:49:03;4.88;;;1.52;;
33413;SDS011;60055;41.884;12.534;2023-04-03T07:51:29;5.55;;;1.30;;
33413;SDS011;60055;41.884;12.534;2023-04-03T07:53:55;4.00;;;1.20;;
33413;SDS011;60055;41.884;12.534;2023-04-03T07:56:20;4.55;;;1.02;;
33413;SDS011;60055;41.884;12.534;2023-04-03T07:58:46;6.97;;;1.30;;
33413;SDS011;60055;41.884;12.534;2023-04-03T08:01:12;3.28;;;1.08;;
33413;SDS011;60055;41.884;12.534;2023-04-03T08:03:38;6.75;;;1.27;;
33413;SDS011;60055;41.884;12.534;2023-04-03T08:06:05;4.85;;;1.35;;
33413;SDS011;60055;41.884;12.534;2023-04-03T08:08:32;3.28;;;1.20;;
33413;SDS011;60055;41.884;12.534;2023-04-03T08:10:59;3.15;;;1.00;;
33413;SDS011;60055;41.884;12.534;2023-04-03T08:13:25;8.88;;;1.30;;
33413;SDS011;60055;41.884;12.534;2023-04-03T08:15:51;6.95;;;1.30;;
33413;SDS011;60055;41.884;12.534;2023-04-03T08:18:16;2.88;;;1.10;;
33413;SDS011;60055;41.884;12.534;2023-04-03T08:20:45;3.33;;;1.20;;
33413;SDS011;60055;41.884;12.534;2023-04-03T08:23:10;4.15;;;1.30;;
33413;SDS011;60055;41.884;12.534;2023-04-03T08:25:39;5.55;;;1.13;;
33413;SDS011;60055;41.884;12.534;2023-04-03T08:28:05;2.40;;;1.40;;
33413;SDS011;60055;41.884;12.534;2023-04-03T08:30:31;2.08;;;1.20;;
33413;SDS011;60055;41.884;12.534;2023-04-03T08:32:56;4.40;;;1.60;;
33413;SDS011;60055;41.884;12.534;2023-04-03T08:35:22;2.58;;;1.20;;
33413;SDS011;60055;41.884;12.534;2023-04-03T08:37:47;3.40;;;1.10;;
33413;SDS011;60055;41.884;12.534;2023-04-03T08:40:14;3.17;;;1.10;;
33413;SDS011;60055;41.884;12.534;2023-04-03T08:45:09;3.53;;;1.23;;
33413;SDS011;60055;41.884;12.534;2023-04-03T08:47:38;3.35;;;1.00;;
33413;SDS011;60055;41.884;12.534;2023-04-03T08:50:18;3.03;;;1.48;;
33413;SDS011;60055;41.884;12.534;2023-04-03T08:52:58;2.92;;;1.20;;
33413;SDS011;60055;41.884;12.534;2023-04-03T08:55:31;2.05;;;1.02;;
33413;SDS011;60055;41.884;12.534;2023-04-03T08:58:16;3.65;;;1.10;;
33413;SDS011;60055;41.884;12.534;2023-04-03T09:03:28;6.30;;;1.05;;
33413;SDS011;60055;41.884;12.534;2023-04-03T09:05:57;5.97;;;0.95;;
33413;SDS011;60055;41.884;12.534;2023-04-03T09:08:29;6.05;;;1.02;;
33413;SDS011;60055;41.884;12.534;2023-04-03T09:16:24;2.25;;;0.90;;
33413;SDS011;60055;41.884;12.534;2023-04-03T09:22:17;2.45;;;0.90;;
33413;SDS011;60055;41.884;12.534;2023-04-03T09:24:47;3.05;;;0.65;;
33413;SDS011;60055;41.884;12.534;2023-04-03T09:27:21;1.15;;;0.70;;
33413;SDS011;60055;41.884;12.534;2023-04-03T09:29:47;2.35;;;0.77;;
33413;SDS011;60055;41.884;12.534;2023-04-03T09:32:18;1.13;;;0.60;;
33413;SDS011;60055;41.884;12.534;2023-04-03T09:34:44;2.95;;;0.80;;
33413;SDS011;60055;41.884;12.534;2023-04-03T09:37:12;1.33;;;0.63;;
33413;SDS011;60055;41.884;12.534;2023-04-03T09:40:05;2.97;;;0.60;;
33413;SDS011;60055;41.884;12.534;2023-04-03T09:42:32;1.33;;;0.50;;
33413;SDS011;60055;41.884;12.534;2023-04-03T09:45:03;3.65;;;0.80;;
33413;SDS011;60055;41.884;12.534;2023-04-03T09:47:31;1.85;;;0.70;;
33413;SDS011;60055;41.884;12.534;2023-04-03T09:52:48;1.05;;;0.50;;
33413;SDS011;60055;41.884;12.534;2023-04-03T09:55:19;2.40;;;0.70;;
33413;SDS011;60055;41.884;12.534;2023-04-03T09:57:54;1.50;;;0.52;;
33413;SDS011;60055;41.884;12.534;2023-04-03T10:00:28;4.93;;;0.77;;
33413;SDS011;60055;41.884;12.534;2023-04-03T10:02:58;3.30;;;0.80;;
33413;SDS011;60055;41.884;12.534;2023-04-03T10:07:52;2.85;;;0.70;;
33413;SDS011;60055;41.884;12.534;2023-04-03T10:10:31;1.30;;;0.60;;
33413;SDS011;60055;41.884;12.534;2023-04-03T10:13:05;2.05;;;0.50;;
33413;SDS011;60055;41.884;12.534;2023-04-03T10:15:46;1.45;;;0.60;;
33413;SDS011;60055;41.884;12.534;2023-04-03T10:24:13;2.10;;;0.60;;
33413;SDS011;60055;41.884;12.534;2023-04-03T10:29:59;2.63;;;0.60;;
33413;SDS011;60055;41.884;12.534;2023-04-03T10:35:25;3.83;;;0.70;;
33413;SDS011;60055;41.884;12.534;2023-04-03T10:38:22;2.45;;;0.50;;
33413;SDS011;60055;41.884;12.534;2023-04-03T10:40:59;1.23;;;0.60;;
33413;SDS011;60055;41.884;12.534;2023-04-03T10:46:12;2.65;;;0.70;;
33413;SDS011;60055;41.884;12.534;2023-04-03T10:51:48;1.10;;;0.50;;
33413;SDS011;60055;41.884;12.534;2023-04-03T10:54:25;2.45;;;0.70;;
33413;SDS011;60055;41.884;12.534;2023-04-03T10:57:12;1.00;;;0.60;;
33413;SDS011;60055;41.884;12.534;2023-04-03T10:59:41;1.02;;;0.50;;
33413;SDS011;60055;41.884;12.534;2023-04-03T11:07:28;3.10;;;0.70;;
33413;SDS011;60055;41.884;12.534;2023-04-03T11:10:00;2.55;;;0.73;;
33413;SDS011;60055;41.884;12.534;2023-04-03T11:12:36;1.90;;;0.57;;
33413;SDS011;60055;41.884;12.534;2023-04-03T11:15:11;1.50;;;0.80;;
33413;SDS011;60055;41.884;12.534;2023-04-03T11:17:41;2.80;;;1.23;;
33413;SDS011;60055;41.884;12.534;2023-04-03T11:26:14;1.50;;;0.60;;
33413;SDS011;60055;41.884;12.534;2023-04-03T11:28:45;1.90;;;0.50;;
33413;SDS011;60055;41.884;12.534;2023-04-03T11:33:58;1.70;;;0.40;;
33413;SDS011;60055;41.884;12.534;2023-04-03T11:36:33;1.35;;;0.40;;
33413;SDS011;60055;41.884;12.534;2023-04-03T11:39:10;3.05;;;0.77;;
33413;SDS011;60055;41.884;12.534;2023-04-03T11:41:52;2.40;;;0.70;;
33413;SDS011;60055;41.884;12.534;2023-04-03T11:46:59;3.55;;;1.00;;
33413;SDS011;60055;41.884;12.534;2023-04-03T11:58:02;3.20;;;0.50;;
33413;SDS011;60055;41.884;12.534;2023-04-03T12:05:57;2.92;;;0.57;;
33413;SDS011;60055;41.884;12.534;2023-04-03T12:08:44;1.63;;;0.68;;
33413;SDS011;60055;41.884;12.534;2023-04-03T12:13:41;2.15;;;0.70;;
33413;SDS011;60055;41.884;12.534;2023-04-03T12:16:19;2.08;;;0.90;;
33413;SDS011;60055;41.884;12.534;2023-04-03T12:22:03;1.38;;;0.70;;
33413;SDS011;60055;41.884;12.534;2023-04-03T12:40:36;1.58;;;0.52;;
33413;SDS011;60055;41.884;12.534;2023-04-03T12:48:46;1.75;;;0.52;;
33413;SDS011;60055;41.884;12.534;2023-04-03T12:51:31;1.90;;;0.60;;
33413;SDS011;60055;41.884;12.534;2023-04-03T12:54:27;2.78;;;0.60;;
33413;SDS011;60055;41.884;12.534;2023-04-03T12:57:10;1.60;;;0.50;;
33413;SDS011;60055;41.884;12.534;2023-04-03T12:59:36;3.00;;;0.70;;
33413;SDS011;60055;41.884;12.534;2023-04-03T13:02:01;4.53;;;0.50;;
33413;SDS011;60055;41.884;12.534;2023-04-03T13:04:31;2.55;;;0.40;;
33413;SDS011;60055;41.884;12.534;2023-04-03T13:06:57;3.20;;;0.70;;
33413;SDS011;60055;41.884;12.534;2023-04-03T13:09:25;3.00;;;0.60;;
33413;SDS011;60055;41.884;12.534;2023-04-03T13:11:56;1.45;;;0.57;;
33413;SDS011;60055;41.884;12.534;2023-04-03T13:14:25;2.50;;;0.50;;
33413;SDS011;60055;41.884;12.534;2023-04-03T13:17:02;1.48;;;0.60;;
33413;SDS011;60055;41.884;12.534;2023-04-03T13:19:37;1.60;;;0.50;;
33413;SDS011;60055;41.884;12.534;2023-04-03T13:22:07;2.22;;;0.50;;
33413;SDS011;60055;41.884;12.534;2023-04-03T13:24:51;1.10;;;0.55;;
33413;SDS011;60055;41.884;12.534;2023-04-03T13:27:19;2.55;;;0.63;;
33413;SDS011;60055;41.884;12.534;2023-04-03T13:29:54;6.57;;;0.60;;
33413;SDS011;60055;41.884;12.534;2023-04-03T13:32:24;1.70;;;0.63;;
33413;SDS011;60055;41.884;12.534;2023-04-03T13:34:51;2.70;;;0.73;;
33413;SDS011;60055;41.884;12.534;2023-04-03T13:42:34;1.52;;;0.60;;
33413;SDS011;60055;41.884;12.534;2023-04-03T13:47:45;2.70;;;0.80;;
33413;SDS011;60055;41.884;12.534;2023-04-03T13:52:43;2.45;;;0.85;;
33413;SDS011;60055;41.884;12.534;2023-04-03T13:55:29;2.33;;;1.00;;
33413;SDS011;60055;41.884;12.534;2023-04-03T13:58:00;2.50;;;0.60;;
33413;SDS011;60055;41.884;12.534;2023-04-03T14:03:21;3.95;;;0.90;;
33413;SDS011;60055;41.884;12.534;2023-04-03T14:06:05;1.95;;;0.80;;
33413;SDS011;60055;41.884;12.534;2023-04-03T14:08:31;3.40;;;0.93;;
33413;SDS011;60055;41.884;12.534;2023-04-03T14:10:59;2.17;;;0.70;;
33413;SDS011;60055;41.884;12.534;2023-04-03T14:13:25;3.38;;;0.80;;
33413;SDS011;60055;41.884;12.534;2023-04-03T14:15:50;3.40;;;0.82;;
33413;SDS011;60055;41.884;12.534;2023-04-03T14:18:17;2.35;;;0.70;;
33413;SDS011;60055;41.884;12.534;2023-04-03T14:20:45;3.35;;;0.90;;
33413;SDS011;60055;41.884;12.534;2023-04-03T14:23:11;2.67;;;0.80;;
33413;SDS011;60055;41.884;12.534;2023-04-03T14:25:36;3.13;;;1.00;;
33413;SDS011;60055;41.884;12.534;2023-04-03T14:28:12;2.42;;;0.82;;
33413;SDS011;60055;41.884;12.534;2023-04-03T14:30:44;5.32;;;1.17;;
33413;SDS011;60055;41.884;12.534;2023-04-03T14:33:15;3.30;;;0.98;;
33413;SDS011;60055;41.884;12.534;2023-04-03T14:35:43;2.58;;;0.90;;
33413;SDS011;60055;41.884;12.534;2023-04-03T14:38:27;21.55;;;7.25;;
33413;SDS011;60055;41.884;12.534;2023-04-03T14:40:54;9.43;;;2.88;;
33413;SDS011;60055;41.884;12.534;2023-04-03T14:43:20;23.13;;;5.93;;
33413;SDS011;60055;41.884;12.534;2023-04-03T14:45:47;23.92;;;13.13;;
33413;SDS011;60055;41.884;12.534;2023-04-03T14:48:21;8.40;;;2.17;;
33413;SDS011;60055;41.884;12.534;2023-04-03T14:50:48;9.18;;;4.72;;
33413;SDS011;60055;41.884;12.534;2023-04-03T14:53:15;3.75;;;1.15;;
33413;SDS011;60055;41.884;12.534;2023-04-03T14:55:42;2.78;;;1.00;;
33413;SDS011;60055;41.884;12.534;2023-04-03T14:58:17;2.85;;;1.50;;
33413;SDS011;60055;41.884;12.534;2023-04-03T15:00:45;4.60;;;1.27;;
33413;SDS011;60055;41.884;12.534;2023-04-03T15:03:18;2.67;;;1.00;;
33413;SDS011;60055;41.884;12.534;2023-04-03T15:05:46;4.57;;;1.85;;
33413;SDS011;60055;41.884;12.534;2023-04-03T15:08:21;6.45;;;2.05;;
33413;SDS011;60055;41.884;12.534;2023-04-03T15:10:49;5.38;;;1.45;;
33413;SDS011;60055;41.884;12.534;2023-04-03T15:13:18;3.85;;;1.35;;
33413;SDS011;60055;41.884;12.534;2023-04-03T15:15:45;4.10;;;1.45;;
33413;SDS011;60055;41.884;12.534;2023-04-03T15:18:15;7.63;;;3.42;;
33413;SDS011;60055;41.884;12.534;2023-04-03T15:20:48;9.05;;;5.95;;
33413;SDS011;60055;41.884;12.534;2023-04-03T15:23:15;4.65;;;2.03;;
33413;SDS011;60055;41.884;12.534;2023-04-03T15:25:44;4.30;;;1.67;;
33413;SDS011;60055;41.884;12.534;2023-04-03T15:28:19;11.38;;;4.93;;
33413;SDS011;60055;41.884;12.534;2023-04-03T15:30:50;9.13;;;1.60;;
33413;SDS011;60055;41.884;12.534;2023-04-03T15:33:16;4.00;;;1.10;;
33413;SDS011;60055;41.884;12.534;2023-04-03T15:35:41;2.67;;;1.10;;
33413;SDS011;60055;41.884;12.534;2023-04-03T15:38:13;3.90;;;1.13;;
33413;SDS011;60055;41.884;12.534;2023-04-03T15:40:38;3.53;;;1.20;;
33413;SDS011;60055;41.884;12.534;2023-04-03T15:43:04;6.28;;;1.20;;
33413;SDS011;60055;41.884;12.534;2023-04-03T15:45:30;2.30;;;0.88;;
33413;SDS011;60055;41.884;12.534;2023-04-03T15:47:58;3.80;;;1.25;;
33413;SDS011;60055;41.884;12.534;2023-04-03T15:50:23;5.22;;;1.10;;
33413;SDS011;60055;41.884;12.534;2023-04-03T15:52:49;5.80;;;1.02;;
33413;SDS011;60055;41.884;12.534;2023-04-03T15:55:22;4.45;;;1.00;;
33413;SDS011;60055;41.884;12.534;2023-04-03T15:57:48;3.17;;;1.20;;
33413;SDS011;60055;41.884;12.534;2023-04-03T16:00:14;5.45;;;1.40;;
33413;SDS011;60055;41.884;12.534;2023-04-03T16:02:40;4.03;;;1.00;;
33413;SDS011;60055;41.884;12.534;2023-04-03T16:05:07;4.97;;;1.27;;
33413;SDS011;60055;41.884;12.534;2023-04-03T16:07:32;4.25;;;1.45;;
33413;SDS011;60055;41.884;12.534;2023-04-03T16:09:58;6.75;;;1.38;;
33413;SDS011;60055;41.884;12.534;2023-04-03T16:12:23;3.90;;;1.40;;
33413;SDS011;60055;41.884;12.534;2023-04-03T16:14:50;8.32;;;1.52;;
33413;SDS011;60055;41.884;12.534;2023-04-03T16:17:16;6.55;;;1.10;;
33413;SDS011;60055;41.884;12.534;2023-04-03T16:19:42;3.90;;;1.30;;
33413;SDS011;60055;41.884;12.534;2023-04-03T16:22:07;6.63;;;1.25;;
33413;SDS011;60055;41.884;12.534;2023-04-03T16:24:33;6.95;;;1.40;;
33413;SDS011;60055;41.884;12.534;2023-04-03T16:26:58;4.13;;;1.20;;
33413;SDS011;60055;41.884;12.534;2023-04-03T16:29:24;8.65;;;1.40;;
33413;SDS011;60055;41.884;12.534;2023-04-03T16:31:49;6.80;;;1.50;;
33413;SDS011;60055;41.884;12.534;2023-04-03T16:34:17;5.50;;;1.38;;